Kelvington, Canada
Current Conditions -  °F | °C
As of 6:00 AM on Friday 24 Oct 2014 (Local Time) from CYQV Reporting Station
Overcast Overcast  
Wind Chill: 52°   Ceiling: 12000
Heat Index: 52°   Visibility: 9mi
Dew Point: 41°   Wind: 12mph
Humidity: 67%   Direction: 230°SW
Pressure: 29.6"   Gusts: 17mph
Location:  52.17°N, 103.52°W
Report Text: CYQV 241200Z AUTO 23010G15KT 9SM OVC120 11/05 A2960 RMK SLP034 DENSITY ALT 1900FT
Loading
Personal Weather Stations






























Interactive Weather Map
Tropical Storm Tracking
New forecast layout! Learn more

10-Day Weather Forecast

Advertisements
Track Severe Weather on mobile